Lamphun, Thailand
Current Conditions -  °F | °C
As of 8:30 AM on Saturday 25 Oct 2014 (Local Time) from VTCC Reporting Station
Broken Clouds Broken Clouds  
Wind Chill: 79°   Ceiling: 3500
Heat Index: 81°   Visibility: 6mi
Dew Point: 70°   Wind: 1mph
Humidity: 74%   Direction: 10°N
Pressure: 30.03"   Gusts: NA
Location:  18.5°N, 99.08°E
Report Text: VTCC 250130Z 01001KT 9999 BKN035 26/21 Q1017 A3003 NOSIG
Loading
Personal Weather Stations






























Interactive Weather Map
Tropical Storm Tracking
New forecast layout! Learn more

10-Day Weather Forecast

Advertisements
Track Severe Weather on mobile